Time;durP1;ratioP1;P1;durP2;ratioP2;P2;SDS_P1;SDS_P2;PMS_P1;PMS_P2;Temp;Humidity;BMP_temperature;BMP_pressure;BME280_temperature;BME280_humidity;BME280_pressure;Samples;Min_cycle;Max_cycle;Signal;HPM_P1;HPM_P2
2021/11/05 00:02:10;;;;;;;3.53;2.50;;;7.10;99.90;;;;;;5088705;28;20372;-80
2021/11/05 00:04:37;;;;;;;2.58;2.38;;;7.10;99.90;;;;;;5087165;28;20388;-80
2021/11/05 00:07:04;;;;;;;2.42;2.22;;;7.20;99.90;;;;;;5088670;28;20384;-80
2021/11/05 00:09:30;;;;;;;3.93;2.60;;;7.20;99.90;;;;;;5088543;28;20487;-79
2021/11/05 00:11:57;;;;;;;3.00;2.70;;;7.10;99.90;;;;;;5088199;28;20483;-82
2021/11/05 00:14:22;;;;;;;2.90;2.60;;;7.10;99.90;;;;;;5087666;28;20425;-82
2021/11/05 00:16:48;;;;;;;3.10;2.80;;;7.10;99.90;;;;;;5086638;28;20397;-79
2021/11/05 00:19:14;;;;;;;3.35;3.05;;;7.10;99.90;;;;;;5088843;28;20738;-80
2021/11/05 00:21:39;;;;;;;4.80;3.30;;;7.10;99.90;;;;;;5088131;28;20392;-81
2021/11/05 00:24:06;;;;;;;3.63;3.23;;;7.10;99.90;;;;;;5087267;28;20392;-79
2021/11/05 00:26:33;;;;;;;3.28;2.95;;;7.00;99.90;;;;;;5088834;28;20392;-81
2021/11/05 00:28:58;;;;;;;3.35;3.05;;;7.10;99.90;;;;;;5087302;28;20414;-79
2021/11/05 00:31:24;;;;;;;4.37;3.33;;;7.10;99.90;;;;;;5088520;28;20388;-79
2021/11/05 00:33:49;;;;;;;4.10;3.27;;;7.20;99.90;;;;;;5086519;28;20528;-80
2021/11/05 00:36:15;;;;;;;4.65;3.20;;;7.10;99.90;;;;;;5086880;28;20411;-80
2021/11/05 00:38:42;;;;;;;3.77;3.17;;;7.10;99.90;;;;;;5088089;28;20391;-80
2021/11/05 00:41:08;;;;;;;4.20;3.40;;;7.10;99.90;;;;;;5088361;28;20368;-80
2021/11/05 00:43:33;;;;;;;4.32;3.45;;;7.10;99.90;;;;;;5086226;28;21028;-79
2021/11/05 00:45:59;;;;;;;3.97;3.40;;;7.10;99.90;;;;;;5085673;28;20400;-81
2021/11/05 00:48:25;;;;;;;4.07;3.13;;;7.10;99.90;;;;;;5087888;28;20384;-80
2021/11/05 00:50:50;;;;;;;3.78;3.35;;;7.20;99.90;;;;;;5088548;28;20372;-81
2021/11/05 00:53:16;;;;;;;4.63;3.70;;;7.20;99.90;;;;;;5086702;28;20380;-80
2021/11/05 00:55:41;;;;;;;4.30;3.90;;;7.20;99.90;;;;;;5086962;28;20430;-80
2021/11/05 00:58:08;;;;;;;4.87;4.37;;;7.20;99.90;;;;;;5087510;28;20426;-81
2021/11/05 01:00:33;;;;;;;5.15;4.65;;;7.20;99.90;;;;;;5085475;28;20866;-81
2021/11/05 01:02:59;;;;;;;5.07;4.40;;;7.20;99.90;;;;;;5087825;28;20446;-81
2021/11/05 01:05:25;;;;;;;5.32;4.53;;;7.20;99.90;;;;;;5087716;28;20862;-80
2021/11/05 01:07:51;;;;;;;4.70;4.22;;;7.20;99.90;;;;;;5088307;28;20372;-81
2021/11/05 01:10:17;;;;;;;5.68;4.60;;;7.20;99.90;;;;;;5085974;28;21120;-80
2021/11/05 01:12:43;;;;;;;6.05;4.78;;;7.20;99.90;;;;;;5087682;28;20380;-81
2021/11/05 01:15:11;;;;;;;5.20;4.70;;;7.20;99.90;;;;;;5087425;28;20401;-82
2021/11/05 01:17:38;;;;;;;6.53;5.07;;;7.30;99.90;;;;;;5088097;28;20387;-80
2021/11/05 01:20:06;;;;;;;5.38;4.88;;;7.20;99.90;;;;;;5087135;28;20384;-80
2021/11/05 01:22:32;;;;;;;7.20;4.95;;;7.20;99.90;;;;;;5087613;28;20395;-80
2021/11/05 01:24:58;;;;;;;6.30;5.00;;;7.10;99.90;;;;;;5086115;28;20380;-80
2021/11/05 01:27:24;;;;;;;5.00;4.60;;;7.20;99.90;;;;;;5087604;28;20391;-81
2021/11/05 01:29:52;;;;;;;6.80;5.18;;;7.20;99.90;;;;;;5085422;28;20426;-81
2021/11/05 01:32:18;;;;;;;5.88;5.18;;;7.20;99.90;;;;;;5085672;28;20392;-81
2021/11/05 01:34:44;;;;;;;6.55;5.03;;;7.20;99.90;;;;;;5087307;28;20377;-80
2021/11/05 01:37:09;;;;;;;6.28;4.95;;;7.20;99.90;;;;;;5085661;28;20381;-80
2021/11/05 01:39:35;;;;;;;5.95;5.07;;;7.20;99.90;;;;;;5087628;28;20907;-80
2021/11/05 01:42:01;;;;;;;5.37;4.87;;;7.20;99.90;;;;;;5087403;28;20390;-81
2021/11/05 01:44:26;;;;;;;5.80;4.97;;;7.20;99.90;;;;;;5085700;28;20384;-81
2021/11/05 01:46:53;;;;;;;4.63;4.20;;;7.20;99.90;;;;;;5086706;28;20470;-82
2021/11/05 01:49:19;;;;;;;5.20;4.38;;;7.20;99.90;;;;;;5087214;28;20380;-81
2021/11/05 01:51:46;;;;;;;4.85;4.18;;;7.20;99.90;;;;;;5084833;28;21233;-81
2021/11/05 01:54:12;;;;;;;5.25;4.72;;;7.20;99.90;;;;;;5087493;28;20404;-80
2021/11/05 01:56:40;;;;;;;5.63;4.70;;;7.20;99.90;;;;;;5085444;28;20428;-79
2021/11/05 01:59:06;;;;;;;7.20;4.95;;;7.20;99.90;;;;;;5086920;28;20388;-81
2021/11/05 02:01:34;;;;;;;6.55;5.47;;;7.20;99.90;;;;;;5084927;28;20399;-81
2021/11/05 02:04:00;;;;;;;5.30;4.80;;;7.20;99.90;;;;;;5085589;28;20428;-79
2021/11/05 02:06:27;;;;;;;7.10;5.68;;;7.20;99.90;;;;;;5085501;28;20395;-81
2021/11/05 02:08:53;;;;;;;6.50;5.78;;;7.20;99.90;;;;;;5087071;28;20388;-81
2021/11/05 02:11:21;;;;;;;6.88;5.97;;;7.20;99.90;;;;;;5086621;28;20388;-80
2021/11/05 02:13:47;;;;;;;7.37;6.10;;;7.30;99.90;;;;;;5086386;28;20542;-81
2021/11/05 02:16:14;;;;;;;8.00;6.37;;;7.30;99.90;;;;;;5086635;28;20506;-82
2021/11/05 02:18:44;;;;;;;7.30;6.30;;;7.30;99.90;;;;;;5086492;28;20387;-80
2021/11/05 02:21:15;;;;;;;6.72;5.95;;;7.40;99.90;;;;;;5087109;28;21229;-80
2021/11/05 02:23:41;;;;;;;7.78;6.43;;;7.40;99.90;;;;;;5086487;28;20403;-81
2021/11/05 02:26:07;;;;;;;9.75;6.65;;;7.40;99.90;;;;;;5087110;28;20476;-81
2021/11/05 02:28:37;;;;;;;8.45;6.30;;;7.50;99.90;;;;;;5089279;28;20475;-82
2021/11/05 02:31:03;;;;;;;7.05;6.35;;;7.40;99.90;;;;;;5086985;28;20368;-80
2021/11/05 02:33:28;;;;;;;9.85;6.80;;;7.40;99.90;;;;;;5089653;28;20389;-79
2021/11/05 02:35:54;;;;;;;9.53;6.80;;;7.50;99.90;;;;;;5090668;28;20418;-81
2021/11/05 02:38:20;;;;;;;8.70;7.00;;;7.50;99.90;;;;;;5090123;28;20491;-80
2021/11/05 02:40:46;;;;;;;9.15;7.15;;;7.50;99.90;;;;;;5090896;28;20372;-82
2021/11/05 02:43:12;;;;;;;12.43;7.82;;;7.60;99.90;;;;;;5090407;28;20487;-80
2021/11/05 02:45:46;;;;;;;9.30;7.55;;;7.70;99.90;;;;;;5089276;28;20802;-81
2021/11/05 02:48:12;;;;;;;9.55;7.93;;;7.70;99.90;;;;;;5088200;28;20392;-81
2021/11/05 02:50:37;;;;;;;10.68;8.68;;;7.60;99.90;;;;;;5088741;28;20387;-81
2021/11/05 02:53:03;;;;;;;9.77;8.53;;;7.60;99.90;;;;;;5090122;28;20407;-80
2021/11/05 02:55:29;;;;;;;10.63;8.60;;;7.70;99.90;;;;;;5090027;28;20750;-81
2021/11/05 02:57:54;;;;;;;10.73;8.50;;;7.60;99.90;;;;;;5089531;28;20445;-81
2021/11/05 03:00:20;;;;;;;11.40;9.00;;;7.70;99.90;;;;;;5088404;28;20886;-80
2021/11/05 03:02:45;;;;;;;11.95;9.73;;;7.60;99.90;;;;;;5089960;28;20438;-81
2021/11/05 03:05:12;;;;;;;10.83;9.77;;;7.60;99.90;;;;;;5090064;28;20380;-81
2021/11/05 03:07:38;;;;;;;11.80;10.00;;;7.60;99.90;;;;;;5090333;28;20395;-82
2021/11/05 03:10:06;;;;;;;11.38;10.23;;;7.60;99.90;;;;;;5090036;28;20712;-80
2021/11/05 03:12:32;;;;;;;12.90;10.83;;;7.70;99.90;;;;;;5088255;28;20388;-81
2021/11/05 03:14:58;;;;;;;12.52;11.20;;;7.70;99.90;;;;;;5087974;28;20403;-82
2021/11/05 03:17:24;;;;;;;13.93;10.88;;;7.70;99.90;;;;;;5089529;28;20395;-82
2021/11/05 03:19:51;;;;;;;12.38;11.07;;;7.80;99.90;;;;;;5089538;28;20396;-81
2021/11/05 03:22:17;;;;;;;12.73;11.43;;;7.80;99.90;;;;;;5083310;28;20782;-82
2021/11/05 03:24:42;;;;;;;14.30;11.70;;;7.80;99.90;;;;;;5089559;28;20406;-82
2021/11/05 03:27:08;;;;;;;13.87;12.07;;;7.80;99.90;;;;;;5089237;28;21153;-81
2021/11/05 03:29:33;;;;;;;14.27;12.83;;;7.80;99.90;;;;;;5089483;28;20411;-80
2021/11/05 03:31:59;;;;;;;15.15;13.10;;;7.80;99.90;;;;;;5089845;28;20417;-79
2021/11/05 03:34:26;;;;;;;17.35;14.00;;;7.70;99.90;;;;;;5089595;28;20383;-80
2021/11/05 03:36:52;;;;;;;16.67;14.63;;;7.70;99.90;;;;;;5087533;28;20530;-81
2021/11/05 03:39:17;;;;;;;18.02;15.55;;;7.70;99.90;;;;;;5088886;28;20379;-79
2021/11/05 03:41:43;;;;;;;19.10;16.20;;;7.70;99.90;;;;;;5089435;28;20385;-80
2021/11/05 03:44:09;;;;;;;20.35;16.95;;;7.80;99.90;;;;;;5089545;28;20377;-80
2021/11/05 03:46:35;;;;;;;21.58;17.40;;;7.70;99.90;;;;;;5087509;28;20400;-82
2021/11/05 03:49:03;;;;;;;19.67;17.10;;;7.70;99.90;;;;;;5089250;28;20391;-81
2021/11/05 03:51:29;;;;;;;23.05;18.67;;;7.70;99.90;;;;;;5089100;28;20388;-82
2021/11/05 03:53:54;;;;;;;21.60;18.70;;;7.70;99.90;;;;;;5088741;28;20866;-82
2021/11/05 03:56:21;;;;;;;21.77;17.80;;;7.80;99.90;;;;;;5088852;28;20739;-81
2021/11/05 03:58:46;;;;;;;21.60;18.50;;;7.80;99.90;;;;;;5087609;28;20526;-81
2021/11/05 04:01:12;;;;;;;24.48;19.58;;;7.80;99.90;;;;;;5087419;28;20516;-81
2021/11/05 04:03:38;;;;;;;22.92;18.90;;;7.80;99.90;;;;;;5088876;28;20929;-81
2021/11/05 04:06:03;;;;;;;24.53;20.87;;;7.90;99.90;;;;;;5088724;28;20391;-80
2021/11/05 04:08:29;;;;;;;22.57;20.13;;;7.80;99.90;;;;;;5088674;28;20738;-81
2021/11/05 04:10:57;;;;;;;24.33;21.42;;;7.80;99.90;;;;;;5088782;28;20499;-81
2021/11/05 04:13:22;;;;;;;26.38;23.23;;;7.90;99.90;;;;;;5088357;28;20396;-81
2021/11/05 04:15:48;;;;;;;30.30;24.43;;;7.90;99.90;;;;;;5087512;28;20396;-81
2021/11/05 04:18:14;;;;;;;30.80;25.50;;;7.80;99.90;;;;;;5089241;28;20380;-81
2021/11/05 04:20:40;;;;;;;31.23;25.53;;;7.80;99.90;;;;;;5088008;28;20533;-80
2021/11/05 04:23:06;;;;;;;29.60;25.70;;;7.80;99.90;;;;;;5086902;28;20381;-81
2021/11/05 04:25:34;;;;;;;31.65;27.33;;;7.90;99.90;;;;;;5088791;28;20764;-82
2021/11/05 04:28:00;;;;;;;32.17;28.40;;;7.80;99.90;;;;;;5088497;28;20384;-81
2021/11/05 04:30:26;;;;;;;33.17;27.77;;;7.80;99.90;;;;;;5088564;28;20449;-80
2021/11/05 04:32:52;;;;;;;36.13;29.88;;;7.90;99.90;;;;;;5086636;28;20373;-81
2021/11/05 04:35:18;;;;;;;40.60;33.35;;;7.80;99.90;;;;;;5088217;28;20422;-81
2021/11/05 04:37:43;;;;;;;36.57;30.97;;;7.80;99.90;;;;;;5088022;28;20427;-81
2021/11/05 04:40:10;;;;;;;40.50;32.33;;;7.90;99.90;;;;;;5087494;28;20398;-82
2021/11/05 04:42:35;;;;;;;41.92;34.53;;;7.90;99.90;;;;;;5088423;28;20388;-82
2021/11/05 04:45:01;;;;;;;42.93;33.87;;;7.90;99.90;;;;;;5088145;28;20388;-81
2021/11/05 04:47:27;;;;;;;44.80;34.87;;;7.90;99.90;;;;;;5087345;28;20890;-81
2021/11/05 04:49:52;;;;;;;44.55;35.17;;;7.90;99.90;;;;;;5087557;28;20397;-82
2021/11/05 04:52:18;;;;;;;46.97;35.50;;;8.00;99.90;;;;;;5087372;28;20396;-83
2021/11/05 04:54:43;;;;;;;45.83;36.37;;;7.90;99.90;;;;;;5086614;28;20890;-80
2021/11/05 04:57:09;;;;;;;50.23;37.90;;;7.90;99.90;;;;;;5088249;28;20423;-80
2021/11/05 04:59:36;;;;;;;48.78;38.20;;;7.90;99.90;;;;;;5087492;28;20380;-79
2021/11/05 05:02:02;;;;;;;49.67;37.95;;;7.90;99.90;;;;;;5088273;28;20381;-83
2021/11/05 05:04:28;;;;;;;48.72;38.05;;;7.90;99.90;;;;;;5087436;28;20392;-81
2021/11/05 05:06:54;;;;;;;46.45;37.17;;;7.90;99.90;;;;;;5088049;28;20739;-81
2021/11/05 05:09:19;;;;;;;49.33;37.00;;;7.90;99.90;;;;;;5088151;28;20384;-80
2021/11/05 05:11:46;;;;;;;49.40;37.45;;;7.90;99.90;;;;;;5085991;28;20475;-81
2021/11/05 05:14:14;;;;;;;46.45;36.28;;;7.90;99.90;;;;;;5086577;28;20380;-79
2021/11/05 05:16:40;;;;;;;48.53;36.80;;;7.90;99.90;;;;;;5087854;28;20461;-80
2021/11/05 05:19:06;;;;;;;46.78;37.72;;;7.90;99.90;;;;;;5087383;28;20384;-81
2021/11/05 05:21:31;;;;;;;48.47;36.97;;;7.80;99.90;;;;;;5087378;28;20392;-82
2021/11/05 05:23:57;;;;;;;47.15;36.30;;;7.80;99.90;;;;;;5086116;28;20395;-81
2021/11/05 05:26:22;;;;;;;47.53;36.92;;;7.80;99.90;;;;;;5086344;28;20408;-80
2021/11/05 05:28:48;;;;;;;49.23;37.70;;;7.80;99.90;;;;;;5086761;28;20436;-80
2021/11/05 05:31:14;;;;;;;47.13;37.43;;;7.80;99.90;;;;;;5087929;28;20373;-80
2021/11/05 05:33:42;;;;;;;50.55;38.15;;;7.80;99.90;;;;;;5085413;28;20933;-79
2021/11/05 05:36:08;;;;;;;50.05;37.65;;;7.90;99.90;;;;;;5087854;28;20404;-80
2021/11/05 05:38:35;;;;;;;50.50;38.53;;;7.90;99.90;;;;;;5085928;28;20384;-79
2021/11/05 05:41:00;;;;;;;49.47;38.20;;;7.90;99.90;;;;;;5087543;28;20719;-79
2021/11/05 05:43:26;;;;;;;45.35;36.60;;;7.90;99.90;;;;;;5086803;28;20904;-78
2021/11/05 05:45:52;;;;;;;48.13;37.05;;;7.90;99.90;;;;;;5087236;28;20388;-80
2021/11/05 05:48:18;;;;;;;51.45;38.55;;;7.90;99.90;;;;;;5087621;28;20923;-81
2021/11/05 05:50:43;;;;;;;47.58;36.38;;;7.90;99.90;;;;;;5087405;28;20377;-80
2021/11/05 05:53:09;;;;;;;50.83;37.53;;;7.90;99.90;;;;;;5086926;28;21040;-80
2021/11/05 05:55:35;;;;;;;47.70;36.73;;;7.90;99.90;;;;;;5086894;28;20778;-80
2021/11/05 05:58:01;;;;;;;46.53;35.97;;;8.00;99.90;;;;;;5087291;28;20377;-81
2021/11/05 06:00:29;;;;;;;46.33;35.55;;;8.00;99.90;;;;;;5079525;28;20499;-80
2021/11/05 06:02:55;;;;;;;48.00;36.00;;;8.00;99.90;;;;;;5090018;28;20441;-82
2021/11/05 06:05:20;;;;;;;45.20;34.43;;;7.90;99.90;;;;;;5089863;28;20393;-81
2021/11/05 06:07:46;;;;;;;42.53;33.73;;;8.00;99.90;;;;;;5090680;28;20452;-80
2021/11/05 06:10:12;;;;;;;43.88;34.85;;;8.00;99.90;;;;;;5091446;28;20830;-80
2021/11/05 06:12:37;;;;;;;44.70;33.80;;;8.00;99.90;;;;;;5089796;28;20380;-80
2021/11/05 06:15:04;;;;;;;42.97;34.07;;;8.10;99.90;;;;;;5088437;28;21177;-80
2021/11/05 06:17:30;;;;;;;40.75;33.50;;;8.10;99.90;;;;;;5088721;28;20388;-81
2021/11/05 06:19:55;;;;;;;43.00;33.42;;;8.10;99.90;;;;;;5085592;28;20483;-81
2021/11/05 06:22:21;;;;;;;40.72;31.45;;;8.00;99.90;;;;;;5090907;28;20384;-81
2021/11/05 06:24:47;;;;;;;41.33;31.63;;;7.90;99.90;;;;;;5089439;28;20467;-80
2021/11/05 06:27:13;;;;;;;41.53;31.87;;;8.00;99.90;;;;;;5090745;28;20381;-81
2021/11/05 06:29:39;;;;;;;40.58;31.75;;;7.90;99.90;;;;;;5091010;28;20858;-79
2021/11/05 06:32:05;;;;;;;40.30;32.22;;;8.00;99.90;;;;;;5091132;28;20461;-80
2021/11/05 06:34:32;;;;;;;38.60;31.00;;;8.10;99.90;;;;;;5091194;28;20365;-80
2021/11/05 06:36:57;;;;;;;40.57;32.13;;;8.10;99.90;;;;;;5090514;28;20418;-80
2021/11/05 06:39:24;;;;;;;39.30;31.63;;;8.10;99.90;;;;;;5090628;28;20384;-80
2021/11/05 06:41:50;;;;;;;38.92;31.05;;;8.10;99.90;;;;;;5090044;28;20447;-80
2021/11/05 06:44:15;;;;;;;38.92;29.85;;;8.10;99.90;;;;;;5089331;28;20438;-80
2021/11/05 06:46:41;;;;;;;40.03;30.83;;;8.10;99.90;;;;;;5088438;28;20434;-81
2021/11/05 06:49:07;;;;;;;38.93;31.07;;;8.10;99.90;;;;;;5090429;28;20424;-80
2021/11/05 06:51:32;;;;;;;40.83;31.60;;;8.10;99.90;;;;;;5090951;28;20467;-80
2021/11/05 06:53:58;;;;;;;38.17;29.98;;;8.10;99.90;;;;;;5091617;28;20380;-80
2021/11/05 06:56:24;;;;;;;40.03;29.48;;;8.10;99.90;;;;;;5091624;28;20954;-80
2021/11/05 06:58:51;;;;;;;36.87;27.93;;;8.10;99.90;;;;;;5089639;28;20465;-80
2021/11/05 07:01:17;;;;;;;39.45;29.80;;;8.10;99.90;;;;;;5091031;28;20441;-80
2021/11/05 07:03:43;;;;;;;36.37;27.67;;;8.10;99.90;;;;;;5091303;28;20765;-81
2021/11/05 07:06:09;;;;;;;36.90;28.35;;;8.10;99.90;;;;;;5091420;28;20380;-80
2021/11/05 07:08:34;;;;;;;37.60;28.90;;;8.10;99.90;;;;;;5090700;28;20404;-80
2021/11/05 07:11:01;;;;;;;35.50;28.08;;;8.20;99.90;;;;;;5089924;28;20441;-81
2021/11/05 07:13:27;;;;;;;37.42;28.40;;;8.20;99.90;;;;;;5088615;28;20389;-80
2021/11/05 07:15:54;;;;;;;35.10;27.50;;;8.20;99.90;;;;;;5090470;28;20403;-80
2021/11/05 07:18:20;;;;;;;34.13;26.98;;;8.30;99.90;;;;;;5089692;28;20479;-80
2021/11/05 07:20:46;;;;;;;34.70;27.05;;;8.30;99.90;;;;;;5090502;28;20388;-81
2021/11/05 07:23:13;;;;;;;35.63;26.63;;;8.30;99.90;;;;;;5089699;28;20423;-80
2021/11/05 07:25:40;;;;;;;33.53;26.38;;;8.30;99.90;;;;;;5091330;28;20394;-81
2021/11/05 07:28:05;;;;;;;33.83;26.40;;;8.30;99.90;;;;;;5092073;28;20392;-80
2021/11/05 07:30:31;;;;;;;33.87;26.33;;;8.30;99.90;;;;;;5096396;28;20420;-80
2021/11/05 07:32:57;;;;;;;31.83;25.05;;;8.30;99.90;;;;;;5091948;28;21031;-79
2021/11/05 07:35:25;;;;;;;32.17;25.42;;;8.30;99.90;;;;;;5090746;28;20394;-80
2021/11/05 07:37:51;;;;;;;31.98;25.40;;;8.30;99.90;;;;;;5090285;28;20384;-81
2021/11/05 07:40:18;;;;;;;33.38;23.95;;;8.30;99.90;;;;;;5088941;28;20396;-81
2021/11/05 07:42:45;;;;;;;31.08;24.45;;;8.30;99.90;;;;;;5094990;28;20458;-80
2021/11/05 07:45:12;;;;;;;32.00;24.20;;;8.40;99.90;;;;;;5088404;28;20372;-78
2021/11/05 07:47:39;;;;;;;30.73;23.38;;;8.40;99.90;;;;;;5090582;28;20384;-80
2021/11/05 07:50:06;;;;;;;31.13;24.60;;;8.40;99.90;;;;;;5093564;28;20441;-79
2021/11/05 07:52:32;;;;;;;30.45;23.33;;;8.40;99.90;;;;;;5084642;28;20380;-80
2021/11/05 07:54:58;;;;;;;31.58;23.50;;;8.50;99.90;;;;;;5089302;28;20765;-80
2021/11/05 07:57:23;;;;;;;30.03;22.43;;;8.50;99.90;;;;;;5090102;28;20377;-79
2021/11/05 07:59:49;;;;;;;29.63;22.85;;;8.50;99.90;;;;;;5089182;28;20392;-79
2021/11/05 08:02:15;;;;;;;32.33;23.33;;;8.50;99.90;;;;;;5089976;28;20413;-80
2021/11/05 08:04:41;;;;;;;27.33;21.63;;;8.50;99.90;;;;;;5089168;28;20399;-79
2021/11/05 08:07:06;;;;;;;26.05;21.48;;;8.60;99.90;;;;;;5090099;28;20404;-79
2021/11/05 08:09:32;;;;;;;27.23;21.77;;;8.50;99.90;;;;;;5088142;28;20392;-80
2021/11/05 08:11:58;;;;;;;29.57;21.77;;;8.50;99.90;;;;;;5090147;28;20381;-79
2021/11/05 08:14:24;;;;;;;25.40;20.92;;;8.60;99.90;;;;;;5089564;28;20412;-80
2021/11/05 08:16:49;;;;;;;28.67;21.83;;;8.60;99.90;;;;;;5089947;28;20912;-79
2021/11/05 08:19:15;;;;;;;27.55;20.70;;;8.60;99.90;;;;;;5088175;28;20403;-79
2021/11/05 08:21:41;;;;;;;26.73;20.60;;;8.60;99.90;;;;;;5089706;28;20372;-80
2021/11/05 08:24:07;;;;;;;25.77;19.57;;;8.70;99.90;;;;;;5088359;28;20404;-80
2021/11/05 08:26:33;;;;;;;21.60;18.17;;;8.70;99.90;;;;;;5089572;28;20371;-80
2021/11/05 08:28:59;;;;;;;24.15;18.38;;;8.70;99.90;;;;;;5087955;28;20801;-80
2021/11/05 08:31:26;;;;;;;22.27;18.45;;;8.70;99.90;;;;;;5088944;28;20471;-80
2021/11/05 08:33:52;;;;;;;21.45;17.88;;;8.70;99.90;;;;;;5088116;28;20758;-80
2021/11/05 08:36:22;;;;;;;22.60;16.87;;;8.70;99.90;;;;;;5093739;28;20476;-81
2021/11/05 08:38:48;;;;;;;21.23;16.95;;;8.80;99.90;;;;;;5089135;28;20373;-80
2021/11/05 08:41:18;;;;;;;19.27;16.55;;;8.90;99.90;;;;;;5087379;28;20755;-80
2021/11/05 08:43:47;;;;;;;19.10;15.25;;;8.80;99.90;;;;;;5088574;28;20396;-79
2021/11/05 08:46:17;;;;;;;17.58;13.98;;;8.90;99.90;;;;;;5086366;28;20472;-78
2021/11/05 08:48:51;;;;;;;16.55;13.93;;;8.90;99.90;;;;;;5085902;28;20479;-79
2021/11/05 08:51:17;;;;;;;16.50;13.90;;;8.90;99.90;;;;;;5082789;28;20377;-80
2021/11/05 08:53:43;;;;;;;17.95;13.77;;;9.00;99.90;;;;;;5089268;28;20365;-78
2021/11/05 08:56:09;;;;;;;17.03;13.50;;;9.00;99.90;;;;;;5089238;28;20411;-79
2021/11/05 08:58:36;;;;;;;18.27;14.03;;;9.10;99.90;;;;;;5087919;28;20394;-80
2021/11/05 09:01:03;;;;;;;18.30;14.35;;;9.10;99.90;;;;;;5087791;28;20403;-79
2021/11/05 09:03:29;;;;;;;17.73;14.90;;;9.20;99.90;;;;;;5079807;28;20400;-80
2021/11/05 09:05:55;;;;;;;17.85;15.15;;;9.30;99.90;;;;;;5088747;28;20387;-80
2021/11/05 09:08:20;;;;;;;19.02;14.82;;;9.40;99.90;;;;;;5086984;28;20396;-79
2021/11/05 09:10:46;;;;;;;19.20;15.17;;;9.40;99.90;;;;;;5086367;28;20483;-79
2021/11/05 09:13:12;;;;;;;18.40;15.37;;;9.30;99.90;;;;;;5088746;28;20372;-78
2021/11/05 09:15:38;;;;;;;19.80;14.70;;;9.30;99.90;;;;;;5086273;28;20816;-79
2021/11/05 09:18:09;;;;;;;18.77;15.00;;;9.40;99.90;;;;;;5088353;28;20781;-79
2021/11/05 09:20:36;;;;;;;19.30;14.47;;;9.50;99.90;;;;;;5088668;28;20380;-80
2021/11/05 09:23:02;;;;;;;17.30;14.75;;;9.50;99.90;;;;;;5088165;28;20377;-80
2021/11/05 09:25:28;;;;;;;18.58;15.00;;;9.60;99.90;;;;;;5088025;28;20398;-80
2021/11/05 09:27:54;;;;;;;18.27;14.93;;;9.50;99.90;;;;;;5086402;28;20463;-83
2021/11/05 09:30:22;;;;;;;18.47;14.60;;;9.60;99.90;;;;;;5087763;28;20397;-79
2021/11/05 09:32:48;;;;;;;17.75;15.27;;;9.50;99.90;;;;;;5086652;28;20392;-80
2021/11/05 09:35:14;;;;;;;15.80;13.60;;;9.50;99.90;;;;;;5086513;28;20514;-79
2021/11/05 09:37:40;;;;;;;20.50;13.73;;;9.50;99.90;;;;;;5087733;28;20388;-79
2021/11/05 09:40:10;;;;;;;18.20;13.93;;;9.50;99.90;;;;;;5086492;28;20403;-79
2021/11/05 09:42:36;;;;;;;15.45;12.32;;;9.50;99.90;;;;;;5088147;28;20886;-79
2021/11/05 09:45:03;;;;;;;14.00;11.23;;;9.60;99.90;;;;;;5087400;28;20472;-79
2021/11/05 09:47:30;;;;;;;13.10;10.98;;;9.70;99.90;;;;;;5086680;28;20388;-79
2021/11/05 09:49:56;;;;;;;14.70;10.85;;;9.70;99.90;;;;;;5087503;28;20394;-78
2021/11/05 09:52:22;;;;;;;14.40;10.15;;;9.70;99.90;;;;;;5084906;28;20388;-78
2021/11/05 09:54:49;;;;;;;11.30;10.18;;;9.70;99.90;;;;;;5087617;28;20408;-79
2021/11/05 09:57:16;;;;;;;14.07;10.55;;;9.70;99.90;;;;;;5086615;28;20925;-78
2021/11/05 09:59:42;;;;;;;12.98;10.25;;;9.80;99.90;;;;;;5087753;28;20468;-79
2021/11/05 10:02:11;;;;;;;16.77;10.02;;;9.90;99.90;;;;;;5087546;28;20395;-81
2021/11/05 10:04:37;;;;;;;11.80;9.32;;;9.80;99.90;;;;;;5087218;28;20392;-78
2021/11/05 10:07:05;;;;;;;11.82;9.63;;;9.80;99.90;;;;;;5087213;28;20437;-79
2021/11/05 10:09:36;;;;;;;13.23;9.33;;;9.90;99.90;;;;;;5087848;28;20411;-78
2021/11/05 10:12:11;;;;;;;11.57;9.27;;;10.10;99.90;;;;;;5087805;28;20441;-78
2021/11/05 10:14:39;;;;;;;11.48;9.60;;;10.10;99.90;;;;;;5087127;28;20475;-78
2021/11/05 10:17:11;;;;;;;13.18;9.93;;;10.10;99.90;;;;;;5086913;28;20553;-78
2021/11/05 10:19:59;;;;;;;11.10;9.27;;;10.10;99.90;;;;;;5081382;28;20370;-79
2021/11/05 10:22:53;;;;;;;12.82;10.10;;;10.10;99.90;;;;;;5087498;28;20471;-79
2021/11/05 10:25:18;;;;;;;13.80;9.85;;;10.00;99.90;;;;;;5087423;28;20811;-80
2021/11/05 10:27:45;;;;;;;13.47;9.97;;;10.00;99.90;;;;;;5087280;28;20490;-79
2021/11/05 10:30:10;;;;;;;13.80;10.13;;;10.00;99.90;;;;;;5087771;28;20453;-80
2021/11/05 10:32:40;;;;;;;11.73;9.27;;;10.00;99.90;;;;;;5087512;28;20988;-78
2021/11/05 10:35:21;;;;;;;14.45;9.57;;;10.10;99.90;;;;;;5087687;28;20389;-78
2021/11/05 10:37:47;;;;;;;14.23;9.88;;;10.10;99.90;;;;;;5086271;28;20400;-77
2021/11/05 10:40:15;;;;;;;19.15;10.80;;;10.10;99.90;;;;;;5088657;28;20393;-77
2021/11/05 10:42:47;;;;;;;13.25;9.75;;;10.10;99.90;;;;;;5089530;28;20862;-78
2021/11/05 10:56:57;;;;;;;11.07;9.43;;;10.10;99.90;;;;;;5090567;27;20879;-78
2021/11/05 10:59:24;;;;;;;10.17;9.17;;;10.20;99.90;;;;;;5088853;28;20476;-79
2021/11/05 11:01:50;;;;;;;12.27;9.47;;;10.10;99.90;;;;;;5088048;28;20384;-78
2021/11/05 11:04:15;;;;;;;11.07;9.47;;;10.10;99.90;;;;;;5088547;28;20531;-77
2021/11/05 11:06:42;;;;;;;10.43;9.05;;;10.10;99.90;;;;;;5088205;28;20378;-79
2021/11/05 11:09:10;;;;;;;10.80;9.57;;;10.20;99.90;;;;;;5088513;28;20381;-79
2021/11/05 11:11:38;;;;;;;12.32;9.70;;;10.10;99.90;;;;;;5088574;28;20428;-78
2021/11/05 11:14:07;;;;;;;13.43;10.00;;;10.20;99.90;;;;;;5121400;28;20782;-77
2021/11/05 11:16:36;;;;;;;15.30;10.57;;;10.40;99.90;;;;;;5087553;28;20389;-79
2021/11/05 11:19:05;;;;;;;11.82;10.63;;;10.50;99.90;;;;;;5087238;28;20401;-79
2021/11/05 11:21:32;;;;;;;11.32;10.05;;;10.50;99.90;;;;;;5086746;28;20406;-80
2021/11/05 11:23:59;;;;;;;14.63;11.07;;;10.40;99.90;;;;;;5086746;28;20400;-79
2021/11/05 11:26:27;;;;;;;12.70;11.27;;;10.30;99.90;;;;;;5086681;28;20412;-79
2021/11/05 11:28:52;;;;;;;12.57;11.17;;;10.40;99.90;;;;;;5086704;28;20378;-78
2021/11/05 11:31:18;;;;;;;15.90;12.03;;;10.40;99.90;;;;;;5086695;28;20381;-78
2021/11/05 11:33:45;;;;;;;13.80;11.68;;;10.30;99.90;;;;;;5086811;28;20401;-78
2021/11/05 11:36:12;;;;;;;12.07;10.87;;;10.30;99.90;;;;;;5080449;28;20403;-78
2021/11/05 11:38:39;;;;;;;15.98;12.68;;;10.40;99.90;;;;;;5086855;28;20366;-80
2021/11/05 11:41:09;;;;;;;14.70;12.68;;;10.40;99.90;;;;;;5086535;28;20382;-78
2021/11/05 11:43:36;;;;;;;14.23;12.73;;;10.40;99.90;;;;;;5084527;28;20431;-77
2021/11/05 11:46:02;;;;;;;14.43;12.38;;;10.30;99.90;;;;;;5084217;28;20440;-77
2021/11/05 11:48:52;;;;;;;15.23;12.50;;;10.40;99.90;;;;;;5085923;28;20405;-79
2021/11/05 11:51:25;;;;;;;16.35;12.20;;;10.60;99.90;;;;;;5080733;28;20759;-77
2021/11/05 11:54:20;;;;;;;15.27;12.53;;;10.50;99.90;;;;;;5085846;28;20739;-79
2021/11/05 11:56:46;;;;;;;15.02;11.50;;;10.70;99.90;;;;;;5078840;28;20876;-79
2021/11/05 11:59:15;;;;;;;12.32;10.68;;;10.80;99.90;;;;;;5066018;28;20379;-79
2021/11/05 12:01:43;;;;;;;12.07;9.90;;;10.90;99.90;;;;;;5071569;28;20378;-78
2021/11/05 12:04:13;;;;;;;11.90;9.55;;;11.10;99.90;;;;;;5072199;28;20440;-79
2021/11/05 12:06:50;;;;;;;11.57;8.80;;;11.20;99.90;;;;;;5065423;28;20419;-79
2021/11/05 12:09:31;;;;;;;12.60;8.93;;;11.40;99.90;;;;;;5068294;28;20507;-81
2021/11/05 12:12:20;;;;;;;10.90;8.65;;;11.30;99.90;;;;;;5071403;28;20914;-80
2021/11/05 12:15:18;;;;;;;9.23;7.65;;;11.30;99.90;;;;;;5070810;28;20462;-79
2021/11/05 12:17:49;;;;;;;9.60;8.30;;;11.40;99.90;;;;;;5070981;28;20393;-78
2021/11/05 12:20:32;;;;;;;11.45;9.07;;;11.40;99.90;;;;;;5072236;28;20402;-78
2021/11/05 12:23:10;;;;;;;10.35;7.90;;;11.30;99.90;;;;;;5070786;28;20482;-79
2021/11/05 12:25:58;;;;;;;12.38;9.20;;;11.20;99.90;;;;;;5071978;28;20422;-80
2021/11/05 12:28:29;;;;;;;12.10;8.90;;;11.10;99.90;;;;;;5072370;28;20439;-79
2021/11/05 12:31:21;;;;;;;11.13;9.77;;;11.10;99.90;;;;;;5071090;28;20383;-78
2021/11/05 12:33:46;;;;;;;11.02;9.43;;;11.00;99.90;;;;;;5068067;28;20374;-79
2021/11/05 12:36:12;;;;;;;13.23;10.50;;;11.10;99.90;;;;;;5072154;28;20444;-79
2021/11/05 12:39:02;;;;;;;11.70;9.83;;;11.10;99.90;;;;;;5071717;28;20375;-79
2021/11/05 12:41:28;;;;;;;12.77;10.18;;;11.20;99.90;;;;;;5070732;28;20731;-79
2021/11/05 12:43:54;;;;;;;13.55;10.10;;;11.30;99.90;;;;;;5071820;28;20453;-78
2021/11/05 12:46:22;;;;;;;11.13;9.50;;;11.40;99.90;;;;;;5071834;28;20410;-79
2021/11/05 12:48:49;;;;;;;10.82;9.27;;;11.50;99.90;;;;;;5071696;28;20894;-79
2021/11/05 12:51:24;;;;;;;9.87;8.87;;;11.50;99.90;;;;;;5070715;28;20469;-77
2021/11/05 12:54:07;;;;;;;12.63;8.32;;;11.70;99.90;;;;;;5071495;28;20747;-79